Time;durP1;ratioP1;P1;durP2;ratioP2;P2;SDS_P1;SDS_P2;PMS_P1;PMS_P2;Temp;Humidity;BMP_temperature;BMP_pressure;BME280_temperature;BME280_humidity;BME280_pressure;Samples;Min_cycle;Max_cycle;Signal;HPM_P1;HPM_P2
2021/12/13 00:05:19;;;;;;;150.30;69.10;;;;;;;-5.90;85.89;99353.98;419418;1314;97585;-40
2021/12/13 00:15:30;;;;;;;152.50;69.70;;;;;;;-5.93;85.69;99344.59;419143;1315;111454;-39
2021/12/13 00:25:40;;;;;;;162.90;71.40;;;;;;;-6.21;85.56;99326.48;419150;1315;108858;-40
2021/12/13 00:35:46;;;;;;;183.50;79.80;;;;;;;-6.41;85.57;99323.89;418897;1315;97960;-40
2021/12/13 00:45:58;;;;;;;173.10;74.70;;;;;;;-6.47;85.81;99329.46;419409;1315;108787;-40
2021/12/13 00:56:42;;;;;;;162.60;75.90;;;;;;;-6.33;85.96;99335.05;419347;1314;97570;-40
2021/12/13 01:07:15;;;;;;;172.00;73.90;;;;;;;-6.23;85.79;99345.64;419355;1314;111156;-40
2021/12/13 01:27:31;;;;;;;170.70;75.10;;;;;;;-6.07;85.84;99345.58;419057;1317;97986;-39
2021/12/13 01:37:38;;;;;;;157.80;73.90;;;;;;;-6.04;85.81;99337.49;418216;1316;108993;-40
2021/12/13 01:47:49;;;;;;;162.70;72.50;;;;;;;-6.00;85.75;99330.98;418981;1317;97943;-39
2021/12/13 02:08:20;;;;;;;159.20;74.90;;;;;;;-5.90;85.70;99332.14;419191;1317;108916;-40
2021/12/13 02:18:31;;;;;;;153.80;73.10;;;;;;;-5.90;85.44;99341.29;418992;1317;98143;-40
2021/12/13 02:28:42;;;;;;;160.00;76.90;;;;;;;-5.91;85.46;99330.36;419000;1315;110079;-40
2021/12/13 02:38:53;;;;;;;178.70;81.80;;;;;;;-5.96;85.34;99316.79;419647;1305;97985;-40
2021/12/13 02:49:05;;;;;;;178.40;83.50;;;;;;;-5.89;85.57;99310.81;419072;1314;111014;-39
2021/12/13 02:59:14;;;;;;;181.80;83.60;;;;;;;-5.71;85.56;99318.43;419287;1314;108865;-39
2021/12/13 03:09:25;;;;;;;178.30;83.20;;;;;;;-5.60;85.54;99323.82;419080;1314;97870;-40
2021/12/13 03:19:31;;;;;;;162.10;77.30;;;;;;;-5.55;85.62;99327.93;418912;1314;108615;-40
2021/12/13 03:29:42;;;;;;;166.80;74.20;;;;;;;-5.59;85.67;99335.91;418972;1314;98084;-40
2021/12/13 03:39:53;;;;;;;157.30;71.80;;;;;;;-5.71;85.40;99335.05;419232;1314;111965;-40
2021/12/13 03:50:06;;;;;;;169.80;78.10;;;;;;;-5.69;85.68;99342.00;419168;1313;109583;-40
2021/12/13 04:00:17;;;;;;;159.30;72.90;;;;;;;-5.67;85.39;99347.02;419098;1316;98024;-39
2021/12/13 04:10:28;;;;;;;177.50;77.00;;;;;;;-5.75;85.27;99349.83;419063;1314;109881;-41
2021/12/13 04:20:38;;;;;;;155.50;74.40;;;;;;;-5.81;85.05;99337.84;418140;1316;97605;-41
2021/12/13 04:30:52;;;;;;;153.70;74.80;;;;;;;-5.86;85.25;99338.73;419467;1314;111844;-39
2021/12/13 04:41:00;;;;;;;161.00;72.90;;;;;;;-5.87;85.32;99337.77;419084;1313;109173;-44
2021/12/13 04:51:10;;;;;;;160.10;76.60;;;;;;;-5.83;85.41;99335.14;419100;1313;97948;-41
2021/12/13 05:01:22;;;;;;;154.30;74.10;;;;;;;-5.83;85.32;99335.06;419096;1313;108974;-40
2021/12/13 05:11:29;;;;;;;156.80;72.80;;;;;;;-5.70;85.56;99331.75;419012;1313;97981;-40
2021/12/13 05:21:37;;;;;;;171.00;81.00;;;;;;;-5.53;85.62;99324.36;419235;1313;110304;-40
2021/12/13 05:31:42;;;;;;;180.00;86.20;;;;;;;-5.33;85.60;99329.02;419109;1313;108754;-40
2021/12/13 05:41:52;;;;;;;193.40;88.50;;;;;;;-5.22;85.63;99328.41;419059;1314;98630;-39
2021/12/13 05:52:08;;;;;;;189.40;85.80;;;;;;;-5.04;85.79;99344.46;418753;1315;109064;-41
2021/12/13 06:02:19;;;;;;;210.40;102.50;;;;;;;-4.92;85.72;99355.11;418913;1314;97942;-40
2021/12/13 06:12:32;;;;;;;225.70;97.40;;;;;;;-5.02;85.66;99368.67;419464;1313;109674;-40
2021/12/13 06:22:40;;;;;;;200.90;93.30;;;;;;;-5.08;85.46;99382.27;419300;1313;108914;-39
2021/12/13 06:53:12;;;;;;;185.30;86.90;;;;;;;-4.63;85.87;99393.16;419309;1314;97955;-40
2021/12/13 07:03:17;;;;;;;159.80;75.20;;;;;;;-4.44;85.75;99410.64;418784;1315;111088;-40
2021/12/13 07:13:25;;;;;;;344.20;129.20;;;;;;;-4.09;85.79;99419.51;419118;1313;109117;-39
2021/12/13 07:23:51;;;;;;;278.10;115.00;;;;;;;-4.08;85.71;99431.27;419309;1313;98409;-40
2021/12/13 07:34:07;;;;;;;272.80;115.20;;;;;;;-3.96;85.83;99433.33;419517;1314;111452;-40
2021/12/13 07:44:24;;;;;;;282.80;116.70;;;;;;;-3.82;85.80;99444.23;419373;1314;108965;-40
2021/12/13 08:04:44;;;;;;;342.40;140.20;;;;;;;-3.66;85.66;99465.83;419693;1315;111087;-40
2021/12/13 08:14:56;;;;;;;262.50;112.50;;;;;;;-3.68;85.63;99476.98;419098;1313;108949;-41
2021/12/13 08:25:06;;;;;;;213.70;105.00;;;;;;;-3.42;85.38;99481.32;419312;1314;97589;-39
2021/12/13 08:35:13;;;;;;;248.00;108.60;;;;;;;-3.18;85.65;99495.83;419518;1313;111078;-39
2021/12/13 08:45:27;;;;;;;296.60;117.50;;;;;;;-3.02;85.61;99506.23;419332;1313;109090;-41
2021/12/13 08:55:38;;;;;;;277.90;116.80;;;;;;;-2.97;85.43;99509.63;419455;1313;97996;-40
2021/12/13 09:05:54;;;;;;;297.50;119.10;;;;;;;-2.96;85.68;99509.60;419548;1313;111144;-40
2021/12/13 09:16:02;;;;;;;227.50;107.40;;;;;;;-2.72;85.61;99494.48;411918;1315;10399268;-40
2021/12/13 09:26:14;;;;;;;220.30;102.10;;;;;;;-2.25;85.93;99478.23;419005;1315;97568;-39
2021/12/13 09:46:31;;;;;;;294.10;131.10;;;;;;;-1.45;85.56;99485.10;419737;1313;107873;-43
2021/12/13 09:56:49;;;;;;;300.20;127.00;;;;;;;-1.24;85.60;99492.92;420131;1313;98052;-40
2021/12/13 10:07:05;;;;;;;308.00;135.70;;;;;;;-1.13;85.38;99481.45;419822;1313;111159;-40
2021/12/13 10:17:15;;;;;;;289.30;130.40;;;;;;;-0.82;85.80;99484.74;420254;1313;107453;-40
2021/12/13 10:27:24;;;;;;;294.40;129.40;;;;;;;-0.50;85.66;99479.43;419883;1313;108842;-39
2021/12/13 10:37:35;;;;;;;201.20;104.40;;;;;;;-0.14;85.70;99479.40;420305;1313;97969;-40
2021/12/13 10:47:47;;;;;;;216.60;106.10;;;;;;;0.19;85.30;99494.73;419966;1313;111161;-40
2021/12/13 10:57:55;;;;;;;280.10;127.80;;;;;;;0.35;85.42;99489.95;420005;1313;108811;-40
2021/12/13 11:08:05;;;;;;;262.20;122.60;;;;;;;0.59;85.60;99484.20;419798;1314;98598;-40
2021/12/13 11:18:17;;;;;;;243.60;116.80;;;;;;;0.62;85.24;99474.73;420127;1313;110262;-40
2021/12/13 11:49:08;;;;;;;201.80;101.30;;;;;;;0.56;85.17;99469.53;420075;1313;110286;-40
2021/12/13 11:59:20;;;;;;;263.60;126.50;;;;;;;0.70;85.31;99465.28;420113;1313;108847;-41
2021/12/13 12:19:58;;;;;;;286.20;134.50;;;;;;;0.72;85.52;99462.33;419941;1314;110968;-40
2021/12/13 12:30:11;;;;;;;314.90;142.40;;;;;;;0.70;85.52;99458.37;420135;1314;107894;-39
2021/12/13 12:40:21;;;;;;;300.70;138.60;;;;;;;0.75;85.59;99458.27;419906;1314;107773;-40
2021/12/13 12:50:34;;;;;;;219.10;117.50;;;;;;;0.76;85.44;99473.21;420185;1313;97958;-40
2021/12/13 13:00:43;;;;;;;211.30;109.50;;;;;;;0.87;85.48;99474.45;419967;1313;108748;-40
2021/12/13 13:21:14;;;;;;;305.90;144.00;;;;;;;0.90;85.41;99479.69;420228;1313;96740;-40
2021/12/13 13:31:27;;;;;;;309.70;145.50;;;;;;;0.78;85.57;99489.39;420092;1313;111354;-41
2021/12/13 13:41:38;;;;;;;311.90;147.30;;;;;;;0.70;85.67;99493.79;420103;1316;108383;-39
2021/12/13 13:51:46;;;;;;;252.90;126.30;;;;;;;0.69;85.73;99495.20;420043;1314;98060;-40
2021/12/13 14:02:04;;;;;;;247.50;127.10;;;;;;;0.74;85.72;99500.35;420118;1315;97940;-40
2021/12/13 14:12:15;;;;;;;290.00;135.90;;;;;;;0.74;85.70;99507.75;420004;1315;109101;-40
2021/12/13 14:22:32;;;;;;;338.10;156.50;;;;;;;0.81;86.22;99513.92;419888;1315;98086;-40
2021/12/13 14:32:40;;;;;;;318.20;146.80;;;;;;;0.63;86.06;99516.84;420233;1315;97569;-39
2021/12/13 14:42:48;;;;;;;322.20;151.40;;;;;;;0.46;85.97;99519.20;419539;1315;111171;-39
2021/12/13 14:53:02;;;;;;;275.40;141.30;;;;;;;0.42;86.01;99530.06;420121;1315;108872;-40
2021/12/13 15:03:14;;;;;;;220.90;112.90;;;;;;;0.48;85.95;99537.84;419977;1314;97914;-40
2021/12/13 15:23:33;;;;;;;291.50;136.60;;;;;;;0.56;86.31;99556.45;420040;1315;108312;-39
2021/12/13 15:33:43;;;;;;;298.50;135.30;;;;;;;0.50;86.17;99567.30;420221;1314;97939;-39
2021/12/13 15:43:54;;;;;;;314.30;141.40;;;;;;;0.35;86.38;99572.84;419761;1314;110146;-40
2021/12/13 15:54:10;;;;;;;359.20;155.90;;;;;;;0.20;86.28;99577.67;419847;1314;108896;-39
2021/12/13 16:04:20;;;;;;;331.10;154.20;;;;;;;0.16;86.49;99577.73;419812;1314;97952;-40
2021/12/13 16:14:30;;;;;;;300.40;148.70;;;;;;;0.24;86.48;99581.27;420128;1314;110196;-42
2021/12/13 16:24:35;;;;;;;288.40;137.20;;;;;;;0.47;86.73;99575.55;419948;1314;108119;-41
2021/12/13 16:34:43;;;;;;;350.70;159.60;;;;;;;0.61;86.53;99581.85;419994;1315;96727;-41
2021/12/13 16:54:59;;;;;;;360.60;164.30;;;;;;;0.42;86.69;99602.53;420515;1313;108957;-40
2021/12/13 17:05:04;;;;;;;295.90;139.00;;;;;;;0.39;86.47;99607.72;420029;1316;97980;-40
2021/12/13 17:15:12;;;;;;;294.60;142.00;;;;;;;0.45;86.72;99617.21;418156;1314;3265764;-41
2021/12/13 17:25:20;;;;;;;293.60;134.40;;;;;;;0.72;86.96;99618.73;419783;1314;108957;-41
2021/12/13 17:35:35;;;;;;;345.10;149.80;;;;;;;0.70;86.76;99622.31;420151;1314;97950;-40
2021/12/13 17:55:53;;;;;;;301.50;132.10;;;;;;;0.40;86.73;99621.50;420063;1315;107874;-40
2021/12/13 18:06:12;;;;;;;294.70;136.60;;;;;;;0.28;86.75;99619.15;420067;1314;105673;-40
2021/12/13 18:16:30;;;;;;;281.20;130.90;;;;;;;0.31;86.73;99625.46;420042;1315;97548;-40
2021/12/13 18:36:46;;;;;;;365.00;156.80;;;;;;;0.56;86.80;99628.99;420005;1317;98057;-40
2021/12/13 18:46:54;;;;;;;382.00;164.30;;;;;;;0.40;86.93;99629.14;420321;1314;111123;-43
2021/12/13 18:57:13;;;;;;;388.40;163.50;;;;;;;0.31;87.22;99635.13;419799;1314;109081;-40
2021/12/13 19:17:34;;;;;;;339.20;153.30;;;;;;;0.21;87.11;99618.33;419082;1316;97977;-40
2021/12/13 19:27:45;;;;;;;335.00;151.30;;;;;;;0.34;86.97;99627.73;420008;1314;107728;-40
2021/12/13 19:37:57;;;;;;;299.00;133.50;;;;;;;0.54;87.20;99636.28;418422;1317;97553;-40
2021/12/13 19:58:21;;;;;;;393.90;158.00;;;;;;;0.42;87.09;99648.52;419859;1315;108902;-40
2021/12/13 20:08:32;;;;;;;398.10;148.70;;;;;;;0.36;87.37;99647.33;420245;1319;97942;-42
2021/12/13 20:18:47;;;;;;;335.90;142.20;;;;;;;0.31;87.22;99653.36;419788;1314;98078;-40
2021/12/13 20:39:06;;;;;;;276.20;116.40;;;;;;;0.56;87.38;99649.65;419974;1313;109070;-41
2021/12/13 20:49:18;;;;;;;352.40;142.50;;;;;;;0.51;87.34;99643.16;419909;1313;97980;-41
2021/12/13 20:59:30;;;;;;;377.80;150.90;;;;;;;0.40;87.31;99638.31;419786;1313;111104;-41
2021/12/13 21:09:42;;;;;;;362.90;142.80;;;;;;;0.31;87.39;99639.46;419965;1314;109009;-42
2021/12/13 21:19:53;;;;;;;313.70;133.70;;;;;;;0.32;87.31;99639.41;419934;1314;98326;-41
2021/12/13 21:30:00;;;;;;;359.50;148.50;;;;;;;0.45;87.36;99647.37;420019;1314;111341;-40
2021/12/13 21:40:05;;;;;;;315.80;141.60;;;;;;;0.69;87.53;99644.85;419896;1313;107903;-41
2021/12/13 21:50:22;;;;;;;370.50;148.90;;;;;;;0.73;87.43;99643.44;419973;1313;98039;-40
2021/12/13 22:10:45;;;;;;;377.00;150.60;;;;;;;0.36;87.29;99648.20;419751;1313;108844;-40
2021/12/13 22:20:59;;;;;;;315.30;136.30;;;;;;;0.34;87.36;99661.90;419885;1314;107653;-40
2021/12/13 22:31:12;;;;;;;308.00;128.70;;;;;;;0.42;87.41;99658.27;419803;1313;97969;-41
2021/12/13 22:41:29;;;;;;;316.00;132.90;;;;;;;0.57;87.65;99647.13;420149;1313;108135;-42
2021/12/13 22:51:41;;;;;;;357.20;144.50;;;;;;;0.62;87.50;99643.35;419679;1313;97948;-41
2021/12/13 23:01:52;;;;;;;366.40;148.50;;;;;;;0.50;87.55;99641.38;419969;1313;97991;-40
2021/12/13 23:22:45;;;;;;;298.10;128.10;;;;;;;0.38;87.41;99628.33;419819;1313;108969;-40
2021/12/13 23:32:55;;;;;;;288.30;123.90;;;;;;;0.38;87.38;99621.31;420062;1314;98011;-41
2021/12/13 23:53:30;;;;;;;338.50;136.10;;;;;;;0.64;87.82;99606.74;420034;1313;108796;-41
